Erie, PA (16501)

3:51 PM EDT on August 30, 2014 (GMT -0400)
Downtown Erie PA | Change Station
CLOSE
Current Station
Personal Weather Station
Location: Erie, PA
Elevation: 700 ft
Nearby Weather Stations

Elev 700 ft 42.13 °N, 80.09 °W | Updated 10 minutes ago

Clear
Clear
90.7 °F
Feels Like 95 °F
N
4.0
Wind Variable Wind from South

Today
High -- | Low -- °F
--% Chance of Precip.
Yesterday
High -- | Low -- °F
Precip. -- in
6:43 AM 7:57 PM
Waxing Crescent, 24% visible
Pressure 29.98 in
Visibility 10.0 miles
Clouds Clear
Heat Index 95 °F
Dew Point 68 °F
Humidity 48%
Rainfall 0.00 in
Snow Depth Not available.
UV 4.0 out of 12
Pollen 10.70 out of 12
Air Quality Not available.
Flu Activity Not available.
METAR KERI 301851Z 19016G20KT 10SM CLR 33/19 A2999 RMK AO2 SLP150 T03280194

More Conditions Fewer Conditions

Pressure 29.98 in
Visibility 10.0 miles
Clouds Clear
Heat Index 95 °F
Dew Point 68 °F
Humidity 48%
Rainfall 0.00 in
Snow Depth Not available.
UV 4.0 out of 12
Pollen 10.70 out of 12
Air Quality Not available.
Flu Activity Not available.
METAR KERI 301851Z 19016G20KT 10SM CLR 33/19 A2999 RMK AO2 SLP150 T03280194

More Conditions Fewer Conditions

10-Day Weather Forecast

Almanac

Astronomy

Aug. 30, 2014 Rise Set
Actual Time 6:43 AM EDT 7:57 PM EDT
Civil Twilight 6:14 AM EDT 8:26 PM EDT
Nautical Twilight 5:40 AM EDT 9:00 PM EDT
Astronomical Twilight 5:03 AM EDT 9:37 PM EDT
Moon 11:35 AM EDT 10:24 PM EDT
Length of Visible Light 14h 11m
Length of Day
13h 13m
Tomorrow will be 2m 42s shorter.
Waxing Crescent, 24% of the Moon is Illuminated
Today
Waxing Crescent
Sep 2
First Quarter
Sep 8
Full
Sep 15
Last Quarter
Sep 24
New

Today's Extremes

State Highs State Lows

Community

WunderPhotos

Upload Photos

1,748,614 photos uploaded!

WunderBlogs® & News

Nearby

Snow Depth

Station Depth Elevation
No new snow has been reported.

Earthquake Activity

City Distance Mag. Time & Date
No recent earthquake activity has been reported nearby.
Minimum magnitude displayed is 2.5.

Coastal Water Temperatures

Place Temperature
Fairport, OH 73.9 °F
Buffalo, NY 73.0 °F

Nearby Weather Stations